createdAt,value
2023-08-15T00:01:37.525Z,22.60
2023-08-15T00:04:17.464Z,22.60
2023-08-15T00:07:09.959Z,22.60
2023-08-15T00:10:13.132Z,22.60
2023-08-15T00:12:53.881Z,22.60
2023-08-15T00:15:39.567Z,22.50
2023-08-15T00:18:37.360Z,22.50
2023-08-15T00:21:07.415Z,22.40
2023-08-15T00:24:18.428Z,22.40
2023-08-15T00:27:30.224Z,22.40
2023-08-15T00:30:36.090Z,22.30
2023-08-15T00:33:37.559Z,22.30
2023-08-15T00:36:20.438Z,22.30
2023-08-15T00:39:08.358Z,22.30
2023-08-15T00:41:44.392Z,22.30
2023-08-15T00:44:25.793Z,22.30
2023-08-15T00:47:16.333Z,22.20
2023-08-15T00:50:06.979Z,22.20
2023-08-15T00:52:41.100Z,22.20
2023-08-15T00:55:14.420Z,22.20
2023-08-15T00:58:01.183Z,22.10
2023-08-15T01:00:51.663Z,22.10
2023-08-15T01:04:04.919Z,22.10
2023-08-15T01:07:03.254Z,22.10
2023-08-15T01:10:16.783Z,22.10
2023-08-15T01:13:30.411Z,22.00
2023-08-15T01:16:18.080Z,22.00
2023-08-15T01:19:40.824Z,22.00
2023-08-15T01:22:38.279Z,22.00
2023-08-15T01:25:30.421Z,21.90
2023-08-15T01:28:24.121Z,21.90
2023-08-15T01:31:21.822Z,21.90
2023-08-15T01:34:38.234Z,21.90
2023-08-15T01:37:40.916Z,21.90
2023-08-15T01:40:37.340Z,21.80
2023-08-15T01:43:28.410Z,21.80
2023-08-15T01:46:12.496Z,21.80
2023-08-15T01:49:19.718Z,21.80
2023-08-15T01:52:10.253Z,21.80
2023-08-15T01:55:06.548Z,21.80
2023-08-15T01:58:09.208Z,21.80
2023-08-15T02:00:49.767Z,21.80
2023-08-15T02:03:47.447Z,21.80
2023-08-15T02:06:51.962Z,21.80
2023-08-15T02:10:15.415Z,21.70
2023-08-15T02:12:48.721Z,21.70
2023-08-15T02:15:23.862Z,21.70
2023-08-15T02:17:56.072Z,21.70
2023-08-15T02:20:34.938Z,21.70
2023-08-15T02:23:32.786Z,21.70
2023-08-15T02:26:23.425Z,21.70
2023-08-15T02:29:17.433Z,21.60
2023-08-15T02:32:40.288Z,21.60
2023-08-15T02:35:13.139Z,21.60
2023-08-15T02:38:09.593Z,21.60
2023-08-15T02:41:02.076Z,21.60
2023-08-15T02:44:21.758Z,21.60
2023-08-15T02:46:54.820Z,21.70
2023-08-15T02:50:19.927Z,21.70
2023-08-15T02:53:10.159Z,21.70
2023-08-15T02:56:12.940Z,21.70
2023-08-15T02:59:04.427Z,21.80
2023-08-15T03:01:50.557Z,21.80
2023-08-15T03:04:47.797Z,21.80
2023-08-15T03:07:38.947Z,21.90
2023-08-15T03:10:16.672Z,21.90
2023-08-15T03:12:56.513Z,21.90
2023-08-15T03:15:58.438Z,21.90
2023-08-15T03:18:46.116Z,21.90
2023-08-15T03:21:29.319Z,21.90
2023-08-15T03:24:27.608Z,21.90
2023-08-15T03:27:20.621Z,21.90
2023-08-15T03:30:06.244Z,21.90
2023-08-15T03:32:52.838Z,21.90
2023-08-15T03:35:43.676Z,21.90
2023-08-15T03:38:39.216Z,21.80
2023-08-15T03:41:29.898Z,21.80
2023-08-15T03:44:16.262Z,21.80
2023-08-15T03:46:52.220Z,21.70
2023-08-15T03:49:43.694Z,21.70
2023-08-15T03:52:25.972Z,21.70
2023-08-15T03:55:16.466Z,21.70
2023-08-15T03:58:20.727Z,21.70
2023-08-15T04:01:20.044Z,21.60
2023-08-15T04:04:12.768Z,21.60
2023-08-15T04:07:18.406Z,21.60
2023-08-15T04:09:51.781Z,21.60
2023-08-15T04:12:22.294Z,21.60
2023-08-15T04:15:30.392Z,21.70
2023-08-15T04:18:26.951Z,21.60
2023-08-15T04:21:14.898Z,21.60
2023-08-15T04:23:54.121Z,21.70
2023-08-15T04:26:47.077Z,21.70
2023-08-15T04:29:51.724Z,21.70
2023-08-15T04:32:50.303Z,21.70
2023-08-15T04:35:40.777Z,21.80
2023-08-15T04:38:23.782Z,21.80
2023-08-15T04:40:59.435Z,21.80
2023-08-15T04:43:46.546Z,21.90
2023-08-15T04:46:32.084Z,21.90
2023-08-15T04:49:23.441Z,22.00
2023-08-15T04:52:14.571Z,22.00
2023-08-15T04:54:44.882Z,22.10
2023-08-15T04:57:20.695Z,22.10
2023-08-15T05:00:15.990Z,22.10
2023-08-15T05:02:49.589Z,22.10
2023-08-15T05:05:38.039Z,22.10
2023-08-15T05:08:43.233Z,22.10
2023-08-15T05:11:28.299Z,22.10
2023-08-15T05:14:15.149Z,22.10
2023-08-15T05:16:47.559Z,22.10
2023-08-15T05:19:17.795Z,22.10
2023-08-15T05:22:41.944Z,22.10
2023-08-15T05:25:30.269Z,22.10
2023-08-15T05:28:40.650Z,22.10
2023-08-15T05:31:25.907Z,22.10
2023-08-15T05:34:05.777Z,22.20
2023-08-15T05:37:01.903Z,22.20
2023-08-15T05:39:49.526Z,22.20
2023-08-15T05:42:50.685Z,22.30
2023-08-15T05:45:42.089Z,22.30
2023-08-15T05:48:14.191Z,22.40
2023-08-15T05:51:11.282Z,22.40
2023-08-15T05:53:51.814Z,22.50
2023-08-15T05:56:30.777Z,22.50
2023-08-15T05:59:18.831Z,22.70
2023-08-15T06:02:19.854Z,22.80
2023-08-15T06:05:38.617Z,22.90
2023-08-15T06:08:26.642Z,23.00
2023-08-15T06:11:32.733Z,23.10
2023-08-15T06:14:23.017Z,23.20
2023-08-15T06:16:54.093Z,23.30
2023-08-15T06:19:49.317Z,23.40
2023-08-15T06:22:32.578Z,23.50
2023-08-15T06:25:04.096Z,23.60
2023-08-15T06:27:34.580Z,23.60
2023-08-15T06:31:02.849Z,23.70
2023-08-15T06:33:49.952Z,23.80
2023-08-15T06:36:42.846Z,23.90
2023-08-15T06:39:25.746Z,24.00
2023-08-15T06:41:57.889Z,24.00
2023-08-15T06:45:00.699Z,24.10
2023-08-15T06:47:45.742Z,24.20
2023-08-15T06:50:22.516Z,24.30
2023-08-15T06:53:07.254Z,24.40
2023-08-15T06:55:44.283Z,24.50
2023-08-15T06:58:22.705Z,24.50
2023-08-15T07:01:02.453Z,24.70
2023-08-15T07:03:43.806Z,24.80
2023-08-15T07:06:33.582Z,24.90
2023-08-15T07:09:11.017Z,25.00
2023-08-15T07:12:06.943Z,25.10
2023-08-15T07:15:05.590Z,25.10
2023-08-15T07:17:36.576Z,25.20
2023-08-15T07:20:48.445Z,25.30
2023-08-15T07:23:34.963Z,25.40
2023-08-15T07:26:29.129Z,25.50
2023-08-15T07:29:16.275Z,25.50
2023-08-15T07:31:53.894Z,25.60
2023-08-15T07:34:49.791Z,25.70
2023-08-15T07:38:20.621Z,25.80
2023-08-15T07:41:07.229Z,25.90
2023-08-15T07:43:44.953Z,26.00
2023-08-15T07:46:20.059Z,26.10
2023-08-15T07:49:18.223Z,26.20
2023-08-15T07:51:56.485Z,26.30
2023-08-15T07:54:45.307Z,26.40
2023-08-15T07:57:29.788Z,26.50
2023-08-15T08:00:06.585Z,26.60
2023-08-15T08:02:48.997Z,26.70
2023-08-15T08:05:23.413Z,26.90
2023-08-15T08:08:03.197Z,27.00
2023-08-15T08:11:06.258Z,27.10
2023-08-15T08:13:45.964Z,27.20
2023-08-15T08:16:34.346Z,27.30
2023-08-15T08:19:20.309Z,27.40
2023-08-15T08:22:36.666Z,27.50
2023-08-15T08:25:18.912Z,27.60
2023-08-15T08:28:04.653Z,27.70
2023-08-15T08:30:42.634Z,27.80
2023-08-15T08:33:35.063Z,27.90
2023-08-15T08:36:10.347Z,28.00
2023-08-15T08:38:51.103Z,28.10
2023-08-15T08:41:26.976Z,28.20
2023-08-15T08:44:24.556Z,28.30
2023-08-15T08:47:30.125Z,28.40
2023-08-15T08:50:12.359Z,28.50
2023-08-15T08:53:12.497Z,28.50
2023-08-15T08:56:16.542Z,28.50
2023-08-15T08:58:55.216Z,28.50
2023-08-15T09:01:57.996Z,28.50
2023-08-15T09:04:47.370Z,28.50
2023-08-15T09:07:54.430Z,28.40
2023-08-15T09:10:43.151Z,28.50
2023-08-15T09:13:49.912Z,28.50
2023-08-15T09:16:26.139Z,28.60
2023-08-15T09:19:13.688Z,28.60
2023-08-15T09:21:56.447Z,28.70
2023-08-15T09:24:47.613Z,28.80
2023-08-15T09:27:32.324Z,28.80
2023-08-15T09:30:23.530Z,28.90
2023-08-15T09:32:58.391Z,28.90
2023-08-15T09:36:07.133Z,29.00
2023-08-15T09:38:42.709Z,29.00
2023-08-15T09:41:15.977Z,29.10
2023-08-15T09:44:02.606Z,29.10
2023-08-15T09:46:42.537Z,29.20
2023-08-15T09:49:15.378Z,29.20
2023-08-15T09:52:01.474Z,29.30
2023-08-15T09:54:35.543Z,29.40
2023-08-15T09:57:16.515Z,29.50
2023-08-15T10:00:11.930Z,29.60
2023-08-15T10:03:32.197Z,29.70
2023-08-15T10:06:11.601Z,29.70
2023-08-15T10:08:53.936Z,29.80
2023-08-15T10:12:02.395Z,29.90
2023-08-15T10:14:42.222Z,29.90
2023-08-15T10:17:23.012Z,30.00
2023-08-15T10:20:28.027Z,30.00
2023-08-15T10:23:25.276Z,30.00
2023-08-15T10:26:10.900Z,30.00
2023-08-15T10:28:50.469Z,30.00
2023-08-15T10:31:50.331Z,30.10
2023-08-15T10:34:44.307Z,30.20
2023-08-15T10:37:50.458Z,30.40
2023-08-15T10:40:24.603Z,30.50
2023-08-15T10:43:50.300Z,30.70
2023-08-15T10:46:53.794Z,30.90
2023-08-15T10:49:27.778Z,31.00
2023-08-15T10:52:28.842Z,31.10
2023-08-15T10:55:28.497Z,31.20
2023-08-15T10:58:14.908Z,31.10
2023-08-15T11:00:56.518Z,31.10
2023-08-15T11:03:53.429Z,31.00
2023-08-15T11:06:50.777Z,31.00
2023-08-15T11:09:45.440Z,30.90
2023-08-15T11:12:42.124Z,30.90
2023-08-15T11:15:48.406Z,31.00
2023-08-15T11:18:30.442Z,31.00
2023-08-15T11:21:11.830Z,31.00
2023-08-15T11:24:04.346Z,31.00
2023-08-15T11:27:09.248Z,31.00
2023-08-15T11:29:45.547Z,31.00
2023-08-15T11:32:46.233Z,31.10
2023-08-15T11:35:49.581Z,31.20
2023-08-15T11:38:21.689Z,31.40
2023-08-15T11:41:18.077Z,31.40
2023-08-15T11:44:03.677Z,31.30
2023-08-15T11:46:55.359Z,31.30
2023-08-15T11:49:46.638Z,31.20
2023-08-15T11:52:44.180Z,31.10
2023-08-15T11:55:34.526Z,31.00
2023-08-15T11:58:33.326Z,30.80
2023-08-15T12:01:11.615Z,30.60
2023-08-15T12:04:03.929Z,30.40
2023-08-15T12:07:14.456Z,30.10
2023-08-15T12:10:22.744Z,29.70
2023-08-15T12:13:07.275Z,29.30
2023-08-15T12:15:51.351Z,29.10
2023-08-15T12:18:46.272Z,28.80
2023-08-15T12:21:26.978Z,28.60
2023-08-15T12:24:02.238Z,28.50
2023-08-15T12:26:50.021Z,28.40
2023-08-15T12:30:10.852Z,28.30
2023-08-15T12:32:31.320Z,28.30
2023-08-15T12:35:31.707Z,28.30
2023-08-15T12:38:37.900Z,28.40
2023-08-15T12:41:23.928Z,28.60
2023-08-15T12:44:38.077Z,28.80
2023-08-15T12:47:25.963Z,29.00
2023-08-15T12:50:06.491Z,29.20
2023-08-15T12:52:52.955Z,29.40
2023-08-15T12:55:33.105Z,29.60
2023-08-15T12:58:19.120Z,29.90
2023-08-15T13:01:32.930Z,30.00
2023-08-15T13:04:13.690Z,30.20
2023-08-15T13:06:49.848Z,30.30
2023-08-15T13:09:37.986Z,30.50
2023-08-15T13:12:22.130Z,30.90
2023-08-15T13:15:13.212Z,31.30
2023-08-15T13:18:43.483Z,31.70
2023-08-15T13:21:24.498Z,32.00
2023-08-15T13:24:29.637Z,32.00
2023-08-15T13:27:23.867Z,31.90
2023-08-15T13:30:18.401Z,31.70
2023-08-15T13:32:49.147Z,31.60
2023-08-15T13:35:46.149Z,31.60
2023-08-15T13:38:47.053Z,31.60
2023-08-15T13:41:36.963Z,31.60
2023-08-15T13:44:21.030Z,31.60
2023-08-15T13:46:56.694Z,31.50
2023-08-15T13:49:53.944Z,31.50
2023-08-15T13:52:29.954Z,31.60
2023-08-15T13:55:08.118Z,31.80
2023-08-15T13:57:47.187Z,32.10
2023-08-15T14:00:46.938Z,32.30
2023-08-15T14:03:31.313Z,32.50
2023-08-15T14:06:20.246Z,32.70
2023-08-15T14:09:15.356Z,32.80
2023-08-15T14:11:51.530Z,33.00
2023-08-15T14:14:45.888Z,33.40
2023-08-15T14:17:28.170Z,33.70
2023-08-15T14:20:24.847Z,34.00
2023-08-15T14:23:03.536Z,34.40
2023-08-15T14:25:39.519Z,34.70
2023-08-15T14:28:18.468Z,34.80
2023-08-15T14:31:25.214Z,35.00
2023-08-15T14:34:12.135Z,35.40
2023-08-15T14:36:43.943Z,35.80
2023-08-15T14:39:18.782Z,36.00
2023-08-15T14:42:36.761Z,36.10
2023-08-15T14:45:20.404Z,36.40
2023-08-15T14:48:01.459Z,36.50
2023-08-15T14:50:45.374Z,36.60
2023-08-15T14:53:21.918Z,36.60
2023-08-15T14:56:15.354Z,36.50
2023-08-15T14:59:01.470Z,36.40
2023-08-15T15:01:37.655Z,36.50
2023-08-15T15:04:17.843Z,36.50
2023-08-15T15:07:04.079Z,36.60
2023-08-15T15:10:00.153Z,36.90
2023-08-15T15:12:53.283Z,37.10
2023-08-15T15:16:17.426Z,37.30
2023-08-15T15:19:28.381Z,37.50
2023-08-15T15:22:27.676Z,37.70
2023-08-15T15:25:11.782Z,37.80
2023-08-15T15:27:48.749Z,37.50
2023-08-15T15:30:20.291Z,37.00
2023-08-15T15:33:35.280Z,36.40
2023-08-15T15:36:41.949Z,35.70
2023-08-15T15:39:33.536Z,35.00
2023-08-15T15:42:36.524Z,34.30
2023-08-15T15:45:27.964Z,33.70
2023-08-15T15:48:04.424Z,33.00
2023-08-15T15:50:59.486Z,32.50
2023-08-15T15:53:42.116Z,32.00
2023-08-15T15:56:33.584Z,31.60
2023-08-15T15:59:14.614Z,31.30
2023-08-15T16:01:51.699Z,30.90
2023-08-15T16:04:54.909Z,30.60
2023-08-15T16:08:13.504Z,30.40
2023-08-15T16:11:11.225Z,30.20
2023-08-15T16:13:57.113Z,30.00
2023-08-15T16:16:54.656Z,29.80
2023-08-15T16:19:48.901Z,29.70
2023-08-15T16:22:22.930Z,29.60
2023-08-15T16:25:09.796Z,29.40
2023-08-15T16:28:02.421Z,29.30
2023-08-15T16:31:01.642Z,29.30
2023-08-15T16:34:16.405Z,29.30
2023-08-15T16:37:22.424Z,29.40
2023-08-15T16:40:34.183Z,29.40
2023-08-15T16:43:21.885Z,29.40
2023-08-15T16:46:06.314Z,29.40
2023-08-15T16:48:55.565Z,29.30
2023-08-15T16:52:00.474Z,29.30
2023-08-15T16:54:46.808Z,29.30
2023-08-15T16:57:25.027Z,29.50
2023-08-15T17:00:18.423Z,29.70
2023-08-15T17:02:54.099Z,29.80
2023-08-15T17:05:52.407Z,29.90
2023-08-15T17:08:48.210Z,29.80
2023-08-15T17:11:54.002Z,29.80
2023-08-15T17:14:33.365Z,29.60
2023-08-15T17:17:06.400Z,29.40
2023-08-15T17:19:40.511Z,29.50
2023-08-15T17:22:28.286Z,29.80
2023-08-15T17:25:12.610Z,30.30
2023-08-15T17:27:52.150Z,30.80
2023-08-15T17:30:45.599Z,31.30
2023-08-15T17:33:43.348Z,31.70
2023-08-15T17:36:41.686Z,32.00
2023-08-15T17:39:45.414Z,32.20
2023-08-15T17:42:47.387Z,32.20
2023-08-15T17:45:36.145Z,32.00
2023-08-15T17:48:26.386Z,31.70
2023-08-15T17:51:10.348Z,31.40
2023-08-15T17:54:03.998Z,30.90
2023-08-15T17:56:36.606Z,30.40
2023-08-15T17:59:28.102Z,29.90
2023-08-15T18:02:03.946Z,29.50
2023-08-15T18:05:14.250Z,29.00
2023-08-15T18:07:57.252Z,28.60
2023-08-15T18:10:31.940Z,28.30
2023-08-15T18:13:06.843Z,27.90
2023-08-15T18:15:52.153Z,27.60
2023-08-15T18:18:36.431Z,27.30
2023-08-15T18:21:17.785Z,27.10
2023-08-15T18:24:02.794Z,26.80
2023-08-15T18:27:20.937Z,26.60
2023-08-15T18:30:05.182Z,26.40
2023-08-15T18:32:57.896Z,26.20
2023-08-15T18:35:45.234Z,26.00
2023-08-15T18:38:33.110Z,25.80
2023-08-15T18:41:19.558Z,25.60
2023-08-15T18:44:15.665Z,25.50
2023-08-15T18:46:51.933Z,25.40
2023-08-15T18:49:36.256Z,25.20
2023-08-15T18:52:28.133Z,25.20
2023-08-15T18:55:26.746Z,25.00
2023-08-15T18:58:13.366Z,24.90
2023-08-15T19:01:11.903Z,24.80
2023-08-15T19:03:53.189Z,24.70
2023-08-15T19:06:38.270Z,24.50
2023-08-15T19:09:25.150Z,24.50
2023-08-15T19:11:58.703Z,24.40
2023-08-15T19:15:01.266Z,24.30
2023-08-15T19:18:07.831Z,24.30
2023-08-15T19:20:47.895Z,24.20
2023-08-15T19:23:30.700Z,24.10
2023-08-15T19:26:36.676Z,24.10
2023-08-15T19:30:01.554Z,24.00
2023-08-15T19:32:47.054Z,23.90
2023-08-15T19:35:31.210Z,23.80
2023-08-15T19:38:12.012Z,23.80
2023-08-15T19:40:48.985Z,23.70
2023-08-15T19:43:33.441Z,23.70
2023-08-15T19:46:30.451Z,23.60
2023-08-15T19:49:32.511Z,23.50
2023-08-15T19:52:23.048Z,23.40
2023-08-15T19:55:37.149Z,23.30
2023-08-15T19:58:26.928Z,23.30
2023-08-15T20:01:03.550Z,23.30
2023-08-15T20:03:46.604Z,23.20
2023-08-15T20:06:33.814Z,23.20
2023-08-15T20:09:34.403Z,23.20
2023-08-15T20:12:31.238Z,23.10
2023-08-15T20:15:25.330Z,23.10
2023-08-15T20:18:06.091Z,23.10
2023-08-15T20:20:39.547Z,23.00
2023-08-15T20:23:35.291Z,22.90
2023-08-15T20:26:09.424Z,22.90
2023-08-15T20:29:03.415Z,22.90
2023-08-15T20:31:35.156Z,22.80
2023-08-15T20:34:40.582Z,22.80
2023-08-15T20:38:10.235Z,22.70
2023-08-15T20:40:56.236Z,22.60
2023-08-15T20:43:51.278Z,22.60
2023-08-15T20:46:36.921Z,22.50
2023-08-15T20:49:23.491Z,22.50
2023-08-15T20:52:07.648Z,22.40
2023-08-15T20:54:54.372Z,22.40
2023-08-15T20:57:48.197Z,22.40
2023-08-15T21:00:18.909Z,22.30
2023-08-15T21:03:31.273Z,22.30
2023-08-15T21:06:04.327Z,22.30
2023-08-15T21:09:03.190Z,22.30
2023-08-15T21:11:48.430Z,22.20
2023-08-15T21:14:38.396Z,22.30
2023-08-15T21:17:32.625Z,22.30
2023-08-15T21:20:37.719Z,22.20
2023-08-15T21:23:11.592Z,22.20
2023-08-15T21:25:46.643Z,22.20
2023-08-15T21:29:01.932Z,22.10
2023-08-15T21:31:51.100Z,22.10
2023-08-15T21:34:42.138Z,22.10
2023-08-15T21:37:36.841Z,22.10
2023-08-15T21:40:27.559Z,22.00
2023-08-15T21:43:06.450Z,21.90
2023-08-15T21:46:01.368Z,21.90
2023-08-15T21:49:04.743Z,21.90
2023-08-15T21:52:09.486Z,21.80
2023-08-15T21:54:41.044Z,21.80
2023-08-15T21:57:40.939Z,21.80
2023-08-15T22:00:36.873Z,21.80
2023-08-15T22:03:52.969Z,21.70
2023-08-15T22:06:49.410Z,21.70
2023-08-15T22:10:05.660Z,21.70
2023-08-15T22:12:51.632Z,21.60
2023-08-15T22:15:30.959Z,21.60
2023-08-15T22:18:18.895Z,21.60
2023-08-15T22:21:53.180Z,21.60
2023-08-15T22:25:01.176Z,21.50
2023-08-15T22:27:51.641Z,21.50
2023-08-15T22:30:28.554Z,21.50
2023-08-15T22:33:24.998Z,21.50
2023-08-15T22:36:22.064Z,21.40
2023-08-15T22:39:18.739Z,21.40
2023-08-15T22:42:32.031Z,21.30
2023-08-15T22:45:22.186Z,21.30
2023-08-15T22:48:28.492Z,21.30
2023-08-15T22:51:08.030Z,21.30
2023-08-15T22:53:50.816Z,21.30
2023-08-15T22:56:33.300Z,21.20
2023-08-15T22:59:39.155Z,21.20
2023-08-15T23:02:24.823Z,21.10
2023-08-15T23:05:21.985Z,21.10
2023-08-15T23:08:25.092Z,21.10
2023-08-15T23:11:13.418Z,21.10
2023-08-15T23:13:47.186Z,21.10
2023-08-15T23:16:36.351Z,21.10
2023-08-15T23:19:46.904Z,21.10
2023-08-15T23:23:01.459Z,21.10
2023-08-15T23:25:46.763Z,21.00
2023-08-15T23:28:51.284Z,21.00
2023-08-15T23:32:08.382Z,20.90
2023-08-15T23:34:57.207Z,20.90
2023-08-15T23:37:42.874Z,20.90
2023-08-15T23:40:20.324Z,20.80
2023-08-15T23:43:08.056Z,20.80
2023-08-15T23:45:50.842Z,20.80
2023-08-15T23:48:35.798Z,20.80
2023-08-15T23:51:40.388Z,20.80
2023-08-15T23:54:28.654Z,20.70
2023-08-15T23:57:25.873Z,20.70
